createdAt,value
2019-06-26T00:01:22.431Z,14.20
2019-06-26T00:03:49.990Z,13.70
2019-06-26T00:06:17.567Z,13.90
2019-06-26T00:08:45.214Z,14.00
2019-06-26T00:11:12.757Z,14.50
2019-06-26T00:13:40.409Z,14.27
2019-06-26T00:16:09.070Z,14.40
2019-06-26T00:18:36.637Z,15.40
2019-06-26T00:21:04.311Z,13.00
2019-06-26T00:23:31.858Z,14.33
2019-06-26T00:25:59.671Z,15.03
2019-06-26T00:28:27.145Z,14.53
2019-06-26T00:30:55.278Z,14.10
2019-06-26T00:33:22.766Z,14.10
2019-06-26T00:35:50.351Z,15.20
2019-06-26T00:38:19.189Z,14.63
2019-06-26T00:40:46.719Z,15.70
2019-06-26T00:43:14.385Z,14.30
2019-06-26T00:45:42.101Z,15.03
2019-06-26T00:48:10.206Z,14.90
2019-06-26T00:50:37.845Z,14.43
2019-06-26T00:53:05.439Z,15.13
2019-06-26T00:55:32.930Z,15.43
2019-06-26T00:58:00.514Z,16.23
2019-06-26T01:00:34.178Z,15.10
2019-06-26T01:03:01.693Z,16.50
2019-06-26T01:05:30.542Z,16.10
2019-06-26T01:07:58.132Z,15.20
2019-06-26T01:10:25.725Z,16.00
2019-06-26T01:12:53.265Z,16.53
2019-06-26T01:15:21.753Z,14.90
2019-06-26T01:17:49.592Z,15.37
2019-06-26T01:20:17.304Z,14.33
2019-06-26T01:22:44.897Z,15.73
2019-06-26T01:25:12.702Z,15.40
2019-06-26T01:27:41.599Z,14.90
2019-06-26T01:30:10.790Z,15.33
2019-06-26T01:32:38.492Z,15.50
2019-06-26T01:35:06.559Z,15.80
2019-06-26T01:37:40.118Z,16.17
2019-06-26T01:40:08.563Z,16.50
2019-06-26T01:42:36.130Z,15.30
2019-06-26T01:45:06.236Z,16.40
2019-06-26T01:47:33.943Z,16.10
2019-06-26T01:50:01.503Z,17.13
2019-06-26T01:52:30.695Z,15.63
2019-06-26T01:54:58.355Z,15.53
2019-06-26T01:57:26.021Z,15.90
2019-06-26T01:59:53.536Z,16.30
2019-06-26T02:02:21.294Z,16.73
2019-06-26T02:04:48.862Z,15.60
2019-06-26T02:07:16.366Z,15.60
2019-06-26T02:09:43.955Z,16.20
2019-06-26T02:12:11.571Z,16.40
2019-06-26T02:14:39.171Z,16.20
2019-06-26T02:17:06.679Z,17.37
2019-06-26T02:19:34.218Z,17.57
2019-06-26T02:22:04.078Z,19.23
2019-06-26T02:24:31.610Z,20.13
2019-06-26T02:26:59.170Z,19.57
2019-06-26T02:29:26.790Z,18.50
2019-06-26T02:31:54.273Z,19.73
2019-06-26T02:34:21.790Z,19.30
2019-06-26T02:36:49.410Z,20.73
2019-06-26T02:39:17.998Z,20.97
2019-06-26T02:41:45.409Z,20.47
2019-06-26T02:44:12.931Z,20.73
2019-06-26T02:46:40.389Z,19.90
2019-06-26T02:49:09.109Z,22.37
2019-06-26T02:51:36.673Z,22.13
2019-06-26T02:54:04.441Z,21.33
2019-06-26T02:56:31.913Z,20.17
2019-06-26T02:58:59.496Z,20.07
2019-06-26T03:01:27.320Z,22.20
2019-06-26T03:03:54.998Z,20.87
2019-06-26T03:06:22.603Z,18.63
2019-06-26T03:08:50.149Z,19.40
2019-06-26T03:11:17.791Z,20.00
2019-06-26T03:13:45.262Z,20.27
2019-06-26T03:16:12.844Z,18.97
2019-06-26T03:18:40.400Z,19.77
2019-06-26T03:21:08.046Z,18.50
2019-06-26T03:23:35.616Z,17.37
2019-06-26T03:26:03.200Z,19.70
2019-06-26T03:28:30.812Z,18.80
2019-06-26T03:30:58.439Z,17.27
2019-06-26T03:33:27.324Z,18.27
2019-06-26T03:35:54.807Z,20.63
2019-06-26T03:38:22.338Z,20.00
2019-06-26T03:40:50.774Z,20.23
2019-06-26T03:43:18.338Z,18.40
2019-06-26T03:45:46.080Z,21.50
2019-06-26T03:48:13.693Z,21.00
2019-06-26T03:50:41.289Z,21.67
2019-06-26T03:53:09.121Z,17.30
2019-06-26T03:55:36.614Z,18.60
2019-06-26T03:58:04.207Z,19.83
2019-06-26T04:00:39.800Z,19.07
2019-06-26T04:03:08.674Z,22.83
2019-06-26T04:05:36.292Z,22.30
2019-06-26T04:08:04.608Z,21.00
2019-06-26T04:10:32.051Z,21.43
2019-06-26T04:12:59.570Z,22.03
2019-06-26T04:15:40.958Z,20.23
2019-06-26T04:17:56.507Z,22.40
2019-06-26T04:20:23.973Z,23.90
2019-06-26T04:22:51.523Z,20.47
2019-06-26T04:25:19.579Z,24.50
2019-06-26T04:27:47.743Z,20.27
2019-06-26T04:30:15.312Z,24.63
2019-06-26T04:32:43.012Z,21.10
2019-06-26T04:35:10.536Z,24.60
2019-06-26T04:37:38.446Z,24.73
2019-06-26T04:40:06.136Z,21.73
2019-06-26T04:42:37.196Z,22.40
2019-06-26T04:45:04.749Z,21.20
2019-06-26T04:47:32.435Z,21.93
2019-06-26T04:49:59.901Z,22.03
2019-06-26T04:52:47.041Z,25.00
2019-06-26T04:55:15.057Z,23.13
2019-06-26T04:57:42.809Z,24.60
2019-06-26T05:00:12.692Z,24.07
2019-06-26T05:02:40.293Z,24.93
2019-06-26T05:05:10.092Z,21.57
2019-06-26T05:07:37.688Z,25.93
2019-06-26T05:10:06.653Z,27.83
2019-06-26T05:12:34.513Z,24.90
2019-06-26T05:15:02.297Z,26.80
2019-06-26T05:17:30.032Z,25.70
2019-06-26T05:19:57.645Z,24.40
2019-06-26T05:22:25.396Z,24.13
2019-06-26T05:24:53.079Z,23.97
2019-06-26T05:27:21.169Z,24.70
2019-06-26T05:29:48.694Z,21.27
2019-06-26T05:32:16.153Z,21.57
2019-06-26T05:34:43.836Z,24.30
2019-06-26T05:37:11.454Z,22.63
2019-06-26T05:39:39.037Z,21.90
2019-06-26T05:42:06.953Z,22.80
2019-06-26T05:44:34.458Z,24.27
2019-06-26T05:47:01.947Z,22.43
2019-06-26T05:49:29.491Z,21.00
2019-06-26T05:51:57.056Z,21.10
2019-06-26T05:54:25.464Z,22.13
2019-06-26T05:56:53.096Z,20.30
2019-06-26T05:59:20.687Z,21.43
2019-06-26T06:01:48.127Z,19.93
2019-06-26T06:04:15.761Z,22.20
2019-06-26T06:06:43.347Z,19.30
2019-06-26T06:09:11.019Z,18.37
2019-06-26T06:11:38.617Z,20.57
2019-06-26T06:14:06.074Z,21.00
2019-06-26T06:16:46.328Z,20.87
2019-06-26T06:19:03.040Z,21.50
2019-06-26T06:21:30.659Z,20.93
2019-06-26T06:23:59.350Z,20.13
2019-06-26T06:26:27.610Z,23.20
2019-06-26T06:28:55.239Z,23.70
2019-06-26T06:31:22.770Z,23.23
2019-06-26T06:33:52.428Z,24.90
2019-06-26T06:36:20.144Z,24.77
2019-06-26T06:38:47.731Z,24.97
2019-06-26T06:41:15.220Z,25.17
2019-06-26T06:43:43.871Z,25.70
2019-06-26T06:46:11.453Z,26.07
2019-06-26T06:48:38.998Z,26.70
2019-06-26T06:51:09.083Z,28.30
2019-06-26T06:53:36.803Z,26.87
2019-06-26T06:56:04.571Z,28.67
2019-06-26T06:58:32.193Z,27.63
2019-06-26T07:00:59.908Z,29.40
2019-06-26T07:03:27.551Z,28.13
2019-06-26T07:05:55.183Z,27.20
2019-06-26T07:08:22.691Z,26.83
2019-06-26T07:10:50.332Z,27.03
2019-06-26T07:13:17.946Z,25.97
2019-06-26T07:15:45.629Z,26.83
2019-06-26T07:18:13.178Z,27.90
2019-06-26T07:20:44.337Z,25.87
2019-06-26T07:23:10.304Z,27.87
2019-06-26T07:25:37.895Z,25.43
2019-06-26T07:28:05.544Z,26.67
2019-06-26T07:30:33.119Z,25.03
2019-06-26T07:33:00.690Z,23.60
2019-06-26T07:35:28.046Z,23.40
2019-06-26T07:37:55.603Z,23.67
2019-06-26T07:40:23.207Z,26.20
2019-06-26T07:42:50.901Z,21.17
2019-06-26T07:45:18.439Z,20.67
2019-06-26T07:47:46.472Z,19.80
2019-06-26T07:50:14.064Z,18.70
2019-06-26T07:52:43.784Z,19.10
2019-06-26T07:55:12.389Z,17.03
2019-06-26T07:57:40.032Z,16.13
2019-06-26T08:00:07.745Z,16.87
2019-06-26T08:02:35.282Z,17.00
2019-06-26T08:05:03.136Z,17.07
2019-06-26T08:07:30.927Z,14.50
2019-06-26T08:09:58.475Z,13.40
2019-06-26T08:12:26.044Z,12.17
2019-06-26T08:14:53.681Z,11.73
2019-06-26T08:17:22.330Z,12.73
2019-06-26T08:19:49.788Z,12.23
2019-06-26T08:22:17.168Z,12.50
2019-06-26T08:24:44.952Z,11.83
2019-06-26T08:27:13.290Z,13.35
2019-06-26T08:29:40.974Z,11.30
2019-06-26T08:32:08.538Z,12.10
2019-06-26T08:34:35.986Z,10.63
2019-06-26T08:37:03.578Z,8.40
2019-06-26T08:39:31.128Z,9.50
2019-06-26T08:41:58.757Z,10.90
2019-06-26T08:44:26.271Z,11.40
2019-06-26T08:46:53.710Z,11.20
2019-06-26T08:49:25.305Z,11.50
2019-06-26T08:51:50.586Z,9.00
2019-06-26T08:54:18.182Z,9.00
2019-06-26T08:56:47.147Z,8.47
2019-06-26T08:59:14.715Z,11.00
2019-06-26T09:01:42.199Z,11.00
2019-06-26T09:04:09.660Z,9.90
2019-06-26T09:06:37.199Z,11.17
2019-06-26T09:09:06.621Z,9.77
2019-06-26T09:11:34.918Z,10.80
2019-06-26T09:14:02.616Z,9.07
2019-06-26T09:16:30.331Z,10.93
2019-06-26T09:18:57.764Z,11.10
2019-06-26T09:21:25.326Z,8.77
2019-06-26T09:23:52.932Z,10.83
2019-06-26T09:26:20.297Z,7.83
2019-06-26T09:28:47.966Z,9.00
2019-06-26T09:31:15.452Z,9.40
2019-06-26T09:33:43.184Z,8.30
2019-06-26T09:36:10.690Z,7.93
2019-06-26T09:38:38.273Z,8.33
2019-06-26T09:41:05.688Z,8.80
2019-06-26T09:43:33.125Z,8.63
2019-06-26T09:46:00.733Z,7.77
2019-06-26T09:48:29.447Z,10.87
2019-06-26T09:50:57.041Z,8.00
2019-06-26T09:53:24.613Z,7.80
2019-06-26T09:55:52.148Z,8.57
2019-06-26T09:58:19.715Z,8.67
2019-06-26T10:00:48.371Z,7.87
2019-06-26T10:03:15.798Z,8.23
2019-06-26T10:05:43.327Z,8.80
2019-06-26T10:08:10.747Z,8.83
2019-06-26T10:10:38.197Z,8.57
2019-06-26T10:13:05.909Z,10.03
2019-06-26T10:15:33.492Z,7.90
2019-06-26T10:18:01.058Z,7.17
2019-06-26T10:20:28.679Z,6.93
2019-06-26T10:22:56.402Z,8.40
2019-06-26T10:25:23.950Z,7.70
2019-06-26T10:27:51.560Z,7.73
2019-06-26T10:30:19.321Z,9.60
2019-06-26T10:32:47.354Z,9.30
2019-06-26T10:35:15.401Z,9.40
2019-06-26T10:37:42.915Z,9.97
2019-06-26T10:40:10.627Z,7.97
2019-06-26T10:42:38.104Z,15.23
2019-06-26T10:45:06.234Z,8.73
2019-06-26T10:47:33.712Z,10.23
2019-06-26T10:50:01.300Z,8.78
2019-06-26T10:52:29.100Z,9.53
2019-06-26T10:54:56.580Z,8.53
2019-06-26T10:57:24.181Z,9.68
2019-06-26T10:59:55.536Z,7.87
2019-06-26T11:02:21.268Z,7.77
2019-06-26T11:04:48.981Z,6.57
2019-06-26T11:07:16.554Z,9.00
2019-06-26T11:09:44.007Z,8.90
2019-06-26T11:12:11.565Z,7.33
2019-06-26T11:14:39.222Z,7.80
2019-06-26T11:17:06.798Z,8.40
2019-06-26T11:19:43.763Z,7.67
2019-06-26T11:22:04.167Z,8.28
2019-06-26T11:24:31.763Z,8.30
2019-06-26T11:26:59.224Z,8.63
2019-06-26T11:29:26.851Z,7.97
2019-06-26T11:31:55.180Z,9.40
2019-06-26T11:34:22.761Z,8.57
2019-06-26T11:37:03.163Z,8.53
2019-06-26T11:39:19.514Z,9.37
2019-06-26T11:41:47.052Z,10.10
2019-06-26T11:44:14.667Z,8.20
2019-06-26T11:46:42.259Z,8.70
2019-06-26T11:49:10.418Z,11.23
2019-06-26T11:51:37.963Z,10.40
2019-06-26T11:54:05.551Z,11.47
2019-06-26T11:56:33.136Z,12.40
2019-06-26T11:59:00.831Z,13.00
2019-06-26T12:01:28.465Z,14.30
2019-06-26T12:03:56.085Z,14.25
2019-06-26T12:06:23.724Z,16.40
2019-06-26T12:08:51.305Z,14.27
2019-06-26T12:11:18.731Z,12.80
2019-06-26T12:13:46.311Z,13.60
2019-06-26T12:16:13.766Z,13.40
2019-06-26T12:18:41.798Z,14.67
2019-06-26T12:21:10.022Z,12.97
2019-06-26T12:23:37.609Z,12.23
2019-06-26T12:26:05.237Z,12.93
2019-06-26T12:28:32.833Z,12.43
2019-06-26T12:31:00.339Z,12.40
2019-06-26T12:33:27.801Z,12.82
2019-06-26T12:35:55.446Z,13.47
2019-06-26T12:38:23.165Z,13.10
2019-06-26T12:40:50.883Z,12.17
2019-06-26T12:43:18.395Z,13.37
2019-06-26T12:45:47.509Z,11.33
2019-06-26T12:48:16.280Z,12.53
2019-06-26T12:50:44.386Z,11.60
2019-06-26T12:53:12.013Z,11.43
2019-06-26T12:55:39.599Z,13.07
2019-06-26T12:58:14.752Z,11.40
2019-06-26T13:00:36.629Z,10.43
2019-06-26T13:03:04.914Z,12.80
2019-06-26T13:05:32.302Z,12.80
2019-06-26T13:07:59.902Z,12.50
2019-06-26T13:10:27.504Z,11.23
2019-06-26T13:12:55.091Z,12.70
2019-06-26T13:15:22.682Z,11.37
2019-06-26T13:17:50.243Z,11.57
2019-06-26T13:20:18.238Z,12.25
2019-06-26T13:22:45.952Z,11.90
2019-06-26T13:25:16.085Z,13.93
2019-06-26T13:27:43.817Z,12.80
2019-06-26T13:30:11.823Z,11.40
2019-06-26T13:32:39.344Z,12.23
2019-06-26T13:35:08.008Z,12.03
2019-06-26T13:37:35.423Z,12.28
2019-06-26T13:40:03.261Z,12.77
2019-06-26T13:42:31.092Z,14.33
2019-06-26T13:44:59.005Z,12.13
2019-06-26T13:47:26.728Z,11.07
2019-06-26T13:49:54.308Z,11.53
2019-06-26T13:52:21.883Z,12.50
2019-06-26T13:54:49.319Z,12.23
2019-06-26T13:57:16.946Z,11.23
2019-06-26T13:59:44.678Z,11.20
2019-06-26T14:02:12.161Z,12.20
2019-06-26T14:04:39.821Z,13.13
2019-06-26T14:07:08.680Z,12.23
2019-06-26T14:09:36.903Z,11.10
2019-06-26T14:12:04.900Z,11.03
2019-06-26T14:14:52.531Z,12.20
2019-06-26T14:17:02.056Z,11.53
2019-06-26T14:19:29.578Z,11.97
2019-06-26T14:21:57.111Z,13.00
2019-06-26T14:24:25.126Z,13.27
2019-06-26T14:26:52.522Z,12.70
2019-06-26T14:29:21.179Z,13.20
2019-06-26T14:31:49.112Z,13.00
2019-06-26T14:34:16.644Z,11.97
2019-06-26T14:36:44.127Z,11.93
2019-06-26T14:39:11.916Z,11.03
2019-06-26T14:41:39.492Z,12.37
2019-06-26T14:44:07.040Z,11.70
2019-06-26T14:46:34.468Z,14.07
2019-06-26T14:49:01.971Z,11.53
2019-06-26T14:51:42.281Z,11.73
2019-06-26T14:53:58.995Z,11.10
2019-06-26T14:56:27.173Z,11.80
2019-06-26T14:58:54.719Z,15.73
2019-06-26T15:01:22.322Z,10.23
2019-06-26T15:03:49.901Z,9.33
2019-06-26T15:06:17.482Z,11.10
2019-06-26T15:08:45.026Z,10.90
2019-06-26T15:11:15.502Z,11.90
2019-06-26T15:13:41.967Z,10.17
2019-06-26T15:16:09.429Z,11.50
2019-06-26T15:18:36.888Z,10.33
2019-06-26T15:21:04.403Z,10.35
2019-06-26T15:23:31.904Z,10.83
2019-06-26T15:25:59.453Z,12.13
2019-06-26T15:28:26.863Z,12.60
2019-06-26T15:30:54.390Z,10.43
2019-06-26T15:33:22.078Z,10.13
2019-06-26T15:35:49.581Z,14.37
2019-06-26T15:38:17.088Z,11.40
2019-06-26T15:40:44.597Z,12.40
2019-06-26T15:43:12.817Z,12.77
2019-06-26T15:45:42.488Z,12.65
2019-06-26T15:48:09.988Z,12.77
2019-06-26T15:50:37.563Z,11.57
2019-06-26T15:53:05.214Z,12.90
2019-06-26T15:55:32.808Z,12.93
2019-06-26T15:58:00.421Z,12.97
2019-06-26T16:00:28.050Z,13.13
2019-06-26T16:02:55.519Z,13.30
2019-06-26T16:05:23.409Z,12.03
2019-06-26T16:07:50.979Z,13.23
2019-06-26T16:10:18.511Z,15.90
2019-06-26T16:12:46.059Z,16.40
2019-06-26T16:15:14.316Z,10.60
2019-06-26T16:18:01.551Z,11.10
2019-06-26T16:20:29.022Z,12.10
2019-06-26T16:22:56.680Z,9.53
2019-06-26T16:25:24.431Z,9.07
2019-06-26T16:28:04.641Z,8.47
2019-06-26T16:30:22.394Z,9.20
2019-06-26T16:32:49.976Z,8.60
2019-06-26T16:35:18.698Z,6.93
2019-06-26T16:37:46.407Z,6.70
2019-06-26T16:40:14.134Z,7.20
2019-06-26T16:42:41.714Z,7.03
2019-06-26T16:45:09.270Z,6.30
2019-06-26T16:47:36.806Z,6.93
2019-06-26T16:50:04.391Z,5.73
2019-06-26T16:52:47.467Z,8.33
2019-06-26T16:55:01.557Z,5.20
2019-06-26T16:57:29.141Z,5.20
2019-06-26T17:00:08.935Z,6.37
2019-06-26T17:02:26.238Z,4.63
2019-06-26T17:04:53.858Z,6.00
2019-06-26T17:07:21.678Z,4.30
2019-06-26T17:09:49.102Z,5.80
2019-06-26T17:12:45.559Z,6.83
2019-06-26T17:15:14.042Z,5.07
2019-06-26T17:17:46.908Z,11.23
2019-06-26T17:20:22.680Z,5.90
2019-06-26T17:23:04.974Z,4.03
2019-06-26T17:25:32.701Z,8.33
2019-06-26T17:28:05.328Z,3.40
2019-06-26T17:30:54.083Z,5.50
2019-06-26T17:33:25.496Z,4.03
2019-06-26T17:35:55.939Z,6.03
2019-06-26T17:38:27.269Z,4.93
2019-06-26T17:40:55.498Z,3.43
2019-06-26T17:43:27.561Z,6.00
2019-06-26T17:46:15.465Z,3.13
2019-06-26T17:48:52.839Z,8.13
2019-06-26T17:51:43.490Z,5.07
2019-06-26T17:54:16.778Z,4.23
2019-06-26T18:02:22.996Z,6.87
2019-06-26T18:04:50.563Z,5.37
2019-06-26T18:07:18.057Z,5.57
2019-06-26T18:09:45.779Z,5.93
2019-06-26T18:12:16.277Z,8.23
2019-06-26T18:14:43.948Z,7.83
2019-06-26T18:17:22.040Z,11.10
2019-06-26T18:19:43.626Z,6.37
2019-06-26T18:22:11.158Z,3.70
2019-06-26T18:24:38.703Z,5.03
2019-06-26T18:27:08.653Z,5.83
2019-06-26T18:29:36.383Z,7.83
2019-06-26T18:32:04.294Z,5.40
2019-06-26T18:34:31.946Z,6.40
2019-06-26T18:36:59.485Z,9.67
2019-06-26T18:39:27.124Z,7.70
2019-06-26T18:41:54.709Z,5.60
2019-06-26T18:44:22.267Z,8.17
2019-06-26T18:46:49.944Z,7.60
2019-06-26T18:49:17.630Z,6.10
2019-06-26T18:51:45.259Z,8.90
2019-06-26T18:54:13.032Z,4.77
2019-06-26T18:56:40.875Z,5.60
2019-06-26T18:59:09.508Z,6.27
2019-06-26T19:01:37.560Z,7.00
2019-06-26T19:04:06.093Z,10.23
2019-06-26T19:06:34.442Z,5.40
2019-06-26T19:09:02.216Z,8.50
2019-06-26T19:11:31.758Z,7.57
2019-06-26T19:13:59.311Z,7.37
2019-06-26T19:16:26.764Z,6.00
2019-06-26T19:18:54.438Z,8.53
2019-06-26T19:21:22.134Z,6.87
2019-06-26T19:23:49.773Z,6.57
2019-06-26T19:26:17.301Z,7.17
2019-06-26T19:28:44.952Z,9.00
2019-06-26T19:31:13.577Z,12.27
2019-06-26T19:33:41.245Z,6.53
2019-06-26T19:36:09.050Z,6.70
2019-06-26T19:38:39.824Z,10.03
2019-06-26T19:41:08.610Z,7.35
2019-06-26T19:43:37.348Z,6.60
2019-06-26T19:46:04.997Z,10.80
2019-06-26T19:48:32.723Z,7.50
2019-06-26T19:51:00.784Z,6.33
2019-06-26T19:53:28.953Z,6.53
2019-06-26T19:55:56.612Z,8.00
2019-06-26T19:58:24.331Z,9.70
2019-06-26T20:00:52.140Z,7.87
2019-06-26T20:03:19.728Z,8.05
2019-06-26T20:05:47.446Z,9.77
2019-06-26T20:08:15.343Z,12.53
2019-06-26T20:10:43.057Z,8.77
2019-06-26T20:13:10.876Z,7.67
2019-06-26T20:15:41.149Z,10.13
2019-06-26T20:18:08.881Z,13.00
2019-06-26T20:20:36.678Z,8.87
2019-06-26T20:23:05.515Z,7.93
2019-06-26T20:25:33.645Z,7.53
2019-06-26T20:28:01.529Z,6.90
2019-06-26T20:30:34.331Z,6.67
2019-06-26T20:33:02.566Z,10.68
2019-06-26T20:35:32.000Z,8.17
2019-06-26T20:38:00.349Z,7.33
2019-06-26T20:40:28.795Z,9.40
2019-06-26T20:42:58.660Z,7.77
2019-06-26T20:45:28.713Z,6.33
2019-06-26T20:47:56.586Z,9.33
2019-06-26T20:50:27.330Z,9.53
2019-06-26T20:52:55.265Z,4.70
2019-06-26T20:55:23.292Z,5.73
2019-06-26T20:57:51.248Z,7.03
2019-06-26T21:00:22.369Z,8.80
2019-06-26T21:02:49.027Z,8.93
2019-06-26T21:05:16.896Z,10.70
2019-06-26T21:07:44.900Z,7.65
2019-06-26T21:10:13.024Z,7.83
2019-06-26T21:12:42.201Z,8.83
2019-06-26T21:15:10.313Z,7.63
2019-06-26T21:17:38.043Z,9.07
2019-06-26T21:20:06.372Z,8.90
2019-06-26T21:22:34.080Z,9.90
2019-06-26T21:25:17.028Z,9.03
2019-06-26T21:27:32.361Z,6.97
2019-06-26T21:30:00.184Z,6.87
2019-06-26T21:32:27.748Z,7.90
2019-06-26T21:34:55.454Z,8.67
2019-06-26T21:37:23.311Z,9.10
2019-06-26T21:39:51.119Z,6.27
2019-06-26T21:42:18.685Z,8.97
2019-06-26T21:44:46.483Z,6.37
2019-06-26T21:47:15.606Z,6.00
2019-06-26T21:49:43.110Z,7.67
2019-06-26T21:52:10.672Z,7.30
2019-06-26T21:54:38.148Z,6.33
2019-06-26T21:57:24.089Z,6.20
2019-06-26T22:00:11.298Z,5.80
2019-06-26T22:02:58.026Z,8.10
2019-06-26T22:05:27.838Z,6.70
2019-06-26T22:07:57.302Z,6.20
2019-06-26T22:10:32.239Z,4.97
2019-06-26T22:12:59.718Z,4.23
2019-06-26T22:15:27.540Z,8.13
2019-06-26T22:17:55.226Z,5.47
2019-06-26T22:20:22.921Z,8.00
2019-06-26T22:22:50.311Z,7.60
2019-06-26T22:25:17.968Z,4.90
2019-06-26T22:27:45.646Z,5.27
2019-06-26T22:30:14.965Z,7.60
2019-06-26T22:32:42.566Z,9.93
2019-06-26T22:35:13.967Z,11.33
2019-06-26T22:37:41.561Z,5.80
2019-06-26T22:40:09.083Z,6.53
2019-06-26T22:42:36.658Z,9.07
2019-06-26T22:45:04.495Z,8.63
2019-06-26T22:47:32.111Z,9.60
2019-06-26T22:49:59.699Z,8.43
2019-06-26T22:52:26.999Z,6.67
2019-06-26T22:54:54.509Z,6.53
2019-06-26T22:57:22.125Z,10.70
2019-06-26T22:59:49.671Z,9.50
2019-06-26T23:02:17.295Z,6.87
2019-06-26T23:04:45.698Z,8.00
2019-06-26T23:07:13.931Z,7.63
2019-06-26T23:09:41.279Z,9.17
2019-06-26T23:12:10.830Z,9.20
2019-06-26T23:14:38.294Z,9.87
2019-06-26T23:17:05.997Z,7.67
2019-06-26T23:19:33.724Z,7.13
2019-06-26T23:22:01.232Z,10.97
2019-06-26T23:24:28.762Z,8.30
2019-06-26T23:26:56.331Z,6.83
2019-06-26T23:29:24.038Z,9.03
2019-06-26T23:31:51.522Z,7.67
2019-06-26T23:34:19.160Z,6.20
2019-06-26T23:36:47.661Z,6.50
2019-06-26T23:39:35.194Z,8.93
2019-06-26T23:42:02.823Z,8.40
2019-06-26T23:44:30.386Z,6.73
2019-06-26T23:46:58.149Z,10.33
2019-06-26T23:49:26.203Z,9.67
2019-06-26T23:51:54.350Z,10.67
2019-06-26T23:54:22.026Z,10.73
2019-06-26T23:56:49.655Z,13.83
2019-06-26T23:59:17.460Z,10.97
